Temp: 13.6°C   Hum: 82%
  Wind: 0.9mph   Dir: WNW (286°)
  Rain: 0.0mm Rate: 0.0mm/hr
  Pressure: 1007.7mb

Historic data

Bath Spa Weather Station Historical Data
Daily Summary for January 17, 2022 Units:  Metric    English   Both
Daily Weekly Monthly Yearly Custom
  High: Low: Average:
Temperature: 8.2 °C -1.2 °C 2.2 °C
Dew Point: 5.1 °C -2.2 °C 0.6 °C
Humidity: 94% 79.4% 89%
Wind Speed: 7.2km/h 0km/h 0.8km/h
Wind Gust: 11.3km/h - -
Wind- - South
Pressure: 1040.9 hPa 1036.5 hPa -
Precipitation: 0 mm    
Historical Graphs
 
 
Tabular Data for January 17, 2022
Time Temperature Dew Point Pressure Wind Wind Speed Wind Gust Humidity Rainfall Rate (Hourly) solar
00:09 2.2 °C 0.4 °C 1036.5 hPa NNE 2.7 km/h 4.8 km/h 88.3% 0 mm 0 W/m2
00:14 2 °C 0.4 °C 1036.8 hPa NNE 3.2 km/h 4.8 km/h 89% 0 mm 0 W/m2
00:19 1.9 °C 0.3 °C 1036.8 hPa NNE 1.4 km/h 3.2 km/h 89% 0 mm 0 W/m2
00:24 1.8 °C 0.2 °C 1036.8 hPa Calm   1.6 km/h 89% 0 mm 0 W/m2
00:29 1.7 °C 0.1 °C 1036.8 hPa NNE 0.6 km/h 3.2 km/h 89% 0 mm 0 W/m2
00:34 1.5 °C -0.1 °C 1036.8 hPa Calm     89% 0 mm 0 W/m2
00:39 1.4 °C -0.2 °C 1036.8 hPa Calm     89% 0 mm 0 W/m2
00:44 1.4 °C -0.2 °C 1036.8 hPa NNE 1.3 km/h 3.2 km/h 89% 0 mm 0 W/m2
00:49 1.4 °C -0.1 °C 1036.8 hPa Calm   1.6 km/h 90% 0 mm 0 W/m2
00:54 1.4 °C -0.1 °C 1036.8 hPa Calm     90% 0 mm 0 W/m2
00:59 1.2 °C -0.3 °C 1036.8 hPa Calm     90% 0 mm 0 W/m2
01:04 1.1 °C -0.4 °C 1036.8 hPa Calm     90% 0 mm 0 W/m2
01:09 1.1 °C -0.4 °C 1036.8 hPa Calm     90% 0 mm 0 W/m2
01:14 1.1 °C -0.4 °C 1036.8 hPa Calm     90% 0 mm 0 W/m2
01:19 0.9 °C -0.6 °C 1036.8 hPa Calm     90% 0 mm 0 W/m2
01:24 0.9 °C -0.6 °C 1036.8 hPa Calm     90% 0 mm 0 W/m2
01:29 0.9 °C -0.6 °C 1037.1 hPa Calm     90% 0 mm 0 W/m2
01:34 0.9 °C -0.6 °C 1036.8 hPa NNE 0.3 km/h 1.6 km/h 90% 0 mm 0 W/m2
01:39 0.8 °C -0.7 °C 1037.1 hPa Calm     90.2% 0 mm 0 W/m2
01:44 0.8 °C -0.5 °C 1037.1 hPa Calm     91% 0 mm 0 W/m2
01:49 0.7 °C -0.6 °C 1037.1 hPa Calm     91% 0 mm 0 W/m2
01:54 0.8 °C -0.5 °C 1037.1 hPa Calm     91% 0 mm 0 W/m2
01:59 0.8 °C -0.5 °C 1037.1 hPa Calm     91% 0 mm 0 W/m2
02:04 0.8 °C -0.5 °C 1037.1 hPa Calm     91% 0 mm 0 W/m2
02:09 0.7 °C -0.6 °C 1037.1 hPa Calm     91% 0 mm 0 W/m2
02:14 0.7 °C -0.7 °C 1037.1 hPa Calm     91% 0 mm 0 W/m2
02:19 0.6 °C -0.7 °C 1037.1 hPa Calm     91% 0 mm 0 W/m2
02:24 0.6 °C -0.7 °C 1037.1 hPa Calm     91% 0 mm 0 W/m2
02:29 0.6 °C -0.8 °C 1037.1 hPa Calm     91% 0 mm 0 W/m2
02:34 0.3 °C -1 °C 1037.1 hPa Calm     91% 0 mm 0 W/m2
02:39 0.3 °C -1 °C 1037.1 hPa Calm     91% 0 mm 0 W/m2
02:44 0.3 °C -1 °C 1037.1 hPa Calm     91% 0 mm 0 W/m2
02:49 0.3 °C -0.9 °C 1037.1 hPa Calm     91.4% 0 mm 0 W/m2
02:54 0.3 °C -0.8 °C 1037.1 hPa Calm     92% 0 mm 0 W/m2
02:59 0.1 °C -1.2 °C 1037.1 hPa Calm     91.2% 0 mm 0 W/m2
03:04 0 °C -1.1 °C 1037.5 hPa Calm     92% 0 mm 0 W/m2
03:09 0.1 °C -1.1 °C 1037.5 hPa Calm     92% 0 mm 0 W/m2
03:14 0.1 °C -1.1 °C 1037.5 hPa Calm     92% 0 mm 0 W/m2
03:19 -0.1 °C -1.2 °C 1037.5 hPa Calm     92% 0 mm 0 W/m2
03:24 -0.1 °C -1.2 °C 1037.5 hPa Calm     92% 0 mm 0 W/m2
03:29 -0.1 °C -1.2 °C 1037.5 hPa Calm     92% 0 mm 0 W/m2
03:34 -0.2 °C -1.3 °C 1037.5 hPa Calm   1.6 km/h 92% 0 mm 0 W/m2
03:39 -0.3 °C -1.3 °C 1037.5 hPa NNE 3.2 km/h 4.8 km/h 92% 0 mm 0 W/m2
03:44 -0.2 °C -1.2 °C 1037.5 hPa NNE 0.6 km/h 4.8 km/h 92% 0 mm 0 W/m2
03:49 -0.2 °C -1.3 °C 1037.8 hPa NNE 1.1 km/h 3.2 km/h 92% 0 mm 0 W/m2
03:54 -0.3 °C -1.4 °C 1037.8 hPa Calm   1.6 km/h 92% 0 mm 0 W/m2
03:59 -0.6 °C -1.7 °C 1037.8 hPa NNE 0.8 km/h 3.2 km/h 92% 0 mm 0 W/m2
04:04 -0.6 °C -1.7 °C 1037.8 hPa NNE 0.6 km/h 3.2 km/h 92% 0 mm 0 W/m2
04:09 -0.6 °C -1.7 °C 1037.8 hPa Calm   1.6 km/h 92% 0 mm 0 W/m2
04:14 -0.5 °C -1.6 °C 1037.8 hPa Calm     92% 0 mm 0 W/m2
04:19 -0.5 °C -1.6 °C 1037.8 hPa NNE 0.8 km/h 3.2 km/h 92% 0 mm 0 W/m2
04:24 -0.5 °C -1.6 °C 1037.8 hPa NNE 0.3 km/h 3.2 km/h 92% 0 mm 0 W/m2
04:29 -0.6 °C -1.7 °C 1037.8 hPa Calm     92% 0 mm 0 W/m2
04:34 -0.6 °C -1.7 °C 1038.1 hPa Calm   1.6 km/h 92% 0 mm 0 W/m2
04:39 -0.6 °C -1.6 °C 1038.1 hPa Calm     92.8% 0 mm 0 W/m2
04:44 -0.6 °C -1.6 °C 1038.1 hPa Calm     93% 0 mm 0 W/m2
04:49 -0.6 °C -1.6 °C 1037.8 hPa NNE 0.3 km/h 3.2 km/h 93% 0 mm 0 W/m2
04:54 -0.6 °C -1.6 °C 1037.8 hPa Calm     93% 0 mm 0 W/m2
04:59 -0.7 °C -1.7 °C 1037.8 hPa Calm     92.4% 0 mm 0 W/m2
05:04 -0.7 °C -1.7 °C 1037.8 hPa Calm     92.6% 0 mm 0 W/m2
05:09 -0.7 °C -1.7 °C 1037.8 hPa Calm     93% 0 mm 0 W/m2
05:14 -0.7 °C -1.7 °C 1037.8 hPa Calm     93% 0 mm 0 W/m2
05:18 -0.7 °C -1.7 °C 1037.8 hPa Calm     93% 0 mm 0 W/m2
05:24 -0.8 °C -1.8 °C 1037.8 hPa Calm     93% 0 mm 0 W/m2
05:29 -0.8 °C -1.8 °C 1037.8 hPa Calm     93% 0 mm 0 W/m2
05:34 -0.8 °C -1.8 °C 1037.8 hPa NNE 1.3 km/h 3.2 km/h 93% 0 mm 0 W/m2
05:39 -0.8 °C -1.8 °C 1037.8 hPa Calm   3.2 km/h 93% 0 mm 0 W/m2
05:44 -0.8 °C -1.8 °C 1037.8 hPa Calm     93% 0 mm 0 W/m2
05:49 -0.7 °C -1.7 °C 1037.8 hPa Calm     93% 0 mm 0 W/m2
05:54 -0.8 °C -1.8 °C 1038.1 hPa Calm     93% 0 mm 0 W/m2
05:59 -0.8 °C -1.8 °C 1038.1 hPa Calm     93% 0 mm 0 W/m2
06:04 -0.8 °C -1.8 °C 1038.1 hPa Calm     93% 0 mm 0 W/m2
06:09 -0.8 °C -1.8 °C 1038.1 hPa Calm     93% 0 mm 0 W/m2
06:14 -0.9 °C -1.9 °C 1038.1 hPa Calm     93% 0 mm 0 W/m2
06:19 -1 °C -2 °C 1038.1 hPa Calm     93% 0 mm 0 W/m2
06:24 -1 °C -2 °C 1038.1 hPa Calm     93% 0 mm 0 W/m2
06:29 -1.1 °C -2.1 °C 1038.1 hPa Calm     93% 0 mm 0 W/m2
06:34 -1.2 °C -2.2 °C 1038.5 hPa Calm     93% 0 mm 0 W/m2
06:39 -1.1 °C -2.1 °C 1038.5 hPa Calm     93% 0 mm 0 W/m2
06:44 -0.9 °C -1.9 °C 1038.1 hPa Calm     93% 0 mm 0 W/m2
06:49 -0.8 °C -1.8 °C 1038.1 hPa Calm     93% 0 mm 0 W/m2
06:54 -0.8 °C -1.8 °C 1038.1 hPa Calm     93% 0 mm 0 W/m2
06:59 -1 °C -2 °C 1038.5 hPa Calm     93% 0 mm 0 W/m2
07:04 -1.1 °C -2.1 °C 1038.8 hPa Calm     93% 0 mm 0 W/m2
07:09 -1.2 °C -2.2 °C 1038.8 hPa Calm     93% 0 mm 0 W/m2
07:14 -1.1 °C -2.1 °C 1038.8 hPa Calm     93% 0 mm 0 W/m2
07:19 -0.9 °C -1.9 °C 1038.5 hPa Calm     93% 0 mm 0 W/m2
07:24 -0.8 °C -1.8 °C 1038.8 hPa Calm     93.2% 0 mm 0 W/m2
07:29 -0.9 °C -1.8 °C 1038.8 hPa Calm     93.2% 0 mm 0 W/m2
07:34 -1 °C -1.9 °C 1038.8 hPa Calm     93.4% 0 mm 0 W/m2
07:39 -0.9 °C -1.8 °C 1038.8 hPa Calm     94% 0 mm 0 W/m2
07:44 -1 °C -1.8 °C 1038.8 hPa Calm     94% 0 mm 0 W/m2
07:49 -1.1 °C -2 °C 1038.8 hPa Calm     93.4% 0 mm 0 W/m2
07:54 -1.1 °C -2 °C 1038.8 hPa Calm     93.4% 0 mm 0 W/m2
07:58 -1 °C -1.8 °C 1038.8 hPa Calm     94% 0 mm 0 W/m2
08:04 -1 °C -1.8 °C 1038.8 hPa NNE 0.3 km/h 3.2 km/h 94% 0 mm 0 W/m2
08:09 -0.9 °C -1.8 °C 1038.8 hPa Calm   3.2 km/h 94% 0 mm 5 W/m2
08:13 -0.9 °C -1.7 °C 1038.8 hPa Calm     94% 0 mm 7 W/m2
08:19 -0.9 °C -1.7 °C 1038.8 hPa Calm     94% 0 mm 9 W/m2
08:24 -0.8 °C -1.6 °C 1038.8 hPa Calm   3.2 km/h 94% 0 mm 11 W/m2
08:29 -0.8 °C -1.7 °C 1038.8 hPa Calm     94% 0 mm 12 W/m2
08:34 -0.8 °C -1.6 °C 1039.2 hPa Calm     94% 0 mm 14 W/m2
08:39 -0.8 °C -1.7 °C 1039.2 hPa Calm     94% 0 mm 16 W/m2
08:44 -1.1 °C -1.8 °C 1039.2 hPa Calm     94% 0 mm 18 W/m2
08:49 -0.9 °C -1.7 °C 1039.2 hPa Calm   1.6 km/h 94% 0 mm 19 W/m2
08:54 -0.6 °C -1.4 °C 1039.5 hPa Calm   1.6 km/h 94% 0 mm 21 W/m2
08:59 -0.6 °C -1.4 °C 1039.5 hPa Calm     94% 0 mm 21 W/m2
09:04 -0.5 °C -1.3 °C 1039.5 hPa Calm     94% 0 mm 23 W/m2
09:09 -0.2 °C -0.9 °C 1039.5 hPa Calm     94% 0 mm 25 W/m2
09:14 -0.3 °C -1.1 °C 1039.8 hPa NNE 0.3 km/h 3.2 km/h 94% 0 mm 26 W/m2
09:19 -0.2 °C -1 °C 1039.8 hPa Calm   3.2 km/h 94% 0 mm 26 W/m2
09:24 0.1 °C -0.8 °C 1039.8 hPa Calm     94% 0 mm 26 W/m2
09:29 0.1 °C -0.8 °C 1039.8 hPa NNE 1.3 km/h 3.2 km/h 94% 0 mm 30 W/m2
09:34 0.3 °C -0.6 °C 1039.8 hPa NNE 1.3 km/h 3.2 km/h 94% 0 mm 32 W/m2
09:39 0.7 °C -0.2 °C 1039.8 hPa NNE 0.3 km/h 3.2 km/h 94% 0 mm 37 W/m2
09:44 0.8 °C -0.1 °C 1039.8 hPa NNE 1 km/h 3.2 km/h 94% 0 mm 42 W/m2
09:49 0.8 °C -0.1 °C 1039.8 hPa Calm   1.6 km/h 94% 0 mm 49 W/m2
09:54 1.3 °C 0.4 °C 1040.2 hPa Calm   1.6 km/h 94% 0 mm 58 W/m2
09:59 1.9 °C 1.1 °C 1040.2 hPa Calm     94% 0 mm 67 W/m2
10:04 1.8 °C 0.8 °C 1039.8 hPa NNE 0.3 km/h 3.2 km/h 93.8% 0 mm 76 W/m2
10:09 2.3 °C 1.3 °C 1040.2 hPa Calm   1.6 km/h 93.2% 0 mm 84 W/m2
10:13 3.2 °C 2.2 °C 1040.2 hPa Calm     93.3% 0 mm 91 W/m2
10:19 3.2 °C 2 °C 1040.2 hPa Calm     92.2% 0 mm 100 W/m2
10:24 3.1 °C 1.8 °C 1040.5 hPa Calm     91% 0 mm 109 W/m2
10:29 3.3 °C 1.9 °C 1040.5 hPa NNE 0.6 km/h 3.2 km/h 90.4% 0 mm 120 W/m2
10:34 3.2 °C 1.6 °C 1040.5 hPa NNE 0.3 km/h 3.2 km/h 89% 0 mm 128 W/m2
10:39 3.6 °C 2 °C 1040.5 hPa Calm   3.2 km/h 89% 0 mm 137 W/m2
10:44 3.8 °C 1.9 °C 1040.9 hPa Calm     87.8% 0 mm 146 W/m2
10:49 3.9 °C 1.9 °C 1040.5 hPa Calm     87.2% 0 mm 153 W/m2
10:54 4.7 °C 2.7 °C 1040.5 hPa Calm     87.2% 0 mm 162 W/m2
10:59 4.5 °C 2.3 °C 1040.5 hPa NNE 1.6 km/h 4.8 km/h 85.2% 0 mm 169 W/m2
11:04 4.2 °C 1.8 °C 1040.5 hPa NNE 2.4 km/h 4.8 km/h 85% 0 mm 178 W/m2
11:09 3.7 °C 1.4 °C 1040.5 hPa NNE 1 km/h 4.8 km/h 85.2% 0 mm 185 W/m2
11:14 3.8 °C 1.8 °C 1040.5 hPa Calm   3.2 km/h 86% 0 mm 190 W/m2
11:19 4.8 °C 2.7 °C 1040.5 hPa Calm     86.8% 0 mm 195 W/m2
11:24 4.8 °C 2.4 °C 1040.5 hPa NNE 0.6 km/h 3.2 km/h 84.4% 0 mm 202 W/m2
11:29 4.9 °C 2.5 °C 1040.5 hPa NNE 0.3 km/h 4.8 km/h 84.4% 0 mm 207 W/m2
11:34 5.2 °C 2.8 °C 1040.2 hPa NNE 1.6 km/h 6.4 km/h 84% 0 mm 213 W/m2
11:39 4.7 °C 2.2 °C 1040.2 hPa NNE 0.3 km/h 6.4 km/h 83.8% 0 mm 216 W/m2
11:44 4.9 °C 2.6 °C 1040.2 hPa Calm   4.8 km/h 84.8% 0 mm 220 W/m2
11:49 5.2 °C 2.8 °C 1040.2 hPa NNE 2.3 km/h 4.8 km/h 84.2% 0 mm 223 W/m2
11:54 5.3 °C 2.8 °C 1040.2 hPa NNE 1.3 km/h 6.4 km/h 84% 0 mm 229 W/m2
11:59 5.4 °C 2.8 °C 1040.2 hPa NNE 3.7 km/h 6.4 km/h 83.8% 0 mm 230 W/m2
12:04 5.5 °C 2.9 °C 1040.2 hPa NNE 2.6 km/h 6.4 km/h 83.8% 0 mm 234 W/m2
12:09 5.7 °C 2.9 °C 1040.2 hPa NNE 3.2 km/h 8 km/h 83% 0 mm 236 W/m2
12:14 5.6 °C 2.8 °C 1040.2 hPa NNE 5.8 km/h 8 km/h 83% 0 mm 239 W/m2
12:19 5.7 °C 2.9 °C 1040.2 hPa NNE 4.5 km/h 9.7 km/h 83% 0 mm 241 W/m2
12:24 5.8 °C 3.2 °C 1040.2 hPa NNE 4.7 km/h 9.7 km/h 83% 0 mm 241 W/m2
12:29 5.9 °C 3.2 °C 1040.2 hPa NNE 4.8 km/h 9.7 km/h 82.6% 0 mm 243 W/m2
12:34 6.2 °C 3.4 °C 1039.8 hPa NNE 4.2 km/h 9.7 km/h 82% 0 mm 244 W/m2
12:39 6.4 °C 3.5 °C 1039.8 hPa NNE 3.5 km/h 8 km/h 81.4% 0 mm 243 W/m2
12:44 6.6 °C 3.6 °C 1039.5 hPa NNE 4.5 km/h 8 km/h 81.2% 0 mm 243 W/m2
12:49 6.5 °C 3.5 °C 1039.8 hPa NNE 4 km/h 8 km/h 81.2% 0 mm 243 W/m2
12:54 6.7 °C 3.7 °C 1040.2 hPa NNE 4.5 km/h 9.7 km/h 81.6% 0 mm 241 W/m2
12:59 6.7 °C 3.7 °C 1039.8 hPa North 6 km/h 9.7 km/h 81% 0 mm 241 W/m2
13:04 6.7 °C 3.7 °C 1040.2 hPa NNW 5 km/h 8 km/h 81.2% 0 mm 237 W/m2
13:09 6.8 °C 3.8 °C 1039.8 hPa NNW 4.5 km/h 8 km/h 81.4% 0 mm 236 W/m2
13:13 7.1 °C 4.2 °C 1039.5 hPa NNW 1.1 km/h 4.8 km/h 81.8% 0 mm 232 W/m2
13:19 7.5 °C 4.4 °C 1039.5 hPa NNW 1.3 km/h 6.4 km/h 81% 0 mm 230 W/m2
13:24 7.8 °C 4.6 °C 1039.5 hPa NNW 1.8 km/h 6.4 km/h 79.8% 0 mm 227 W/m2
13:29 7.8 °C 4.6 °C 1039.5 hPa NNW 1.8 km/h 6.4 km/h 79.8% 0 mm 225 W/m2
13:34 7.8 °C 4.6 °C 1039.5 hPa NNW 0.6 km/h 4.8 km/h 80% 0 mm 220 W/m2
13:39 8.1 °C 4.8 °C 1039.2 hPa NNW 1.6 km/h 6.4 km/h 79.4% 0 mm 216 W/m2
13:44 7.9 °C 4.7 °C 1039.2 hPa NNW 3.2 km/h 6.4 km/h 79.4% 0 mm 213 W/m2
13:49 7.8 °C 4.7 °C 1039.2 hPa NNW 2.6 km/h 8 km/h 80% 0 mm 206 W/m2
13:54 7.7 °C 4.6 °C 1039.8 hPa NNW 2.9 km/h 8 km/h 80% 0 mm 202 W/m2
13:59 7.7 °C 4.5 °C 1039.8 hPa NNW 4.5 km/h 8 km/h 80.6% 0 mm 197 W/m2
14:04 7.7 °C 4.7 °C 1039.5 hPa NNW 5.1 km/h 8 km/h 81% 0 mm 192 W/m2
14:09 7.9 °C 4.8 °C 1038.8 hPa NNW 3.5 km/h 6.4 km/h 80.6% 0 mm 186 W/m2
14:14 7.8 °C 4.7 °C 1038.8 hPa NNW 6.9 km/h 11.3 km/h 80% 0 mm 179 W/m2
14:19 7.8 °C 4.6 °C 1038.8 hPa NNW 7.2 km/h 11.3 km/h 80.6% 0 mm 174 W/m2
14:24 7.8 °C 4.7 °C 1038.8 hPa NNW 3.5 km/h 11.3 km/h 81% 0 mm 165 W/m2
14:29 7.8 °C 4.7 °C 1038.8 hPa NNW 6.3 km/h 9.7 km/h 80.8% 0 mm 158 W/m2
14:34 7.7 °C 4.6 °C 1038.8 hPa NNW 6.4 km/h 9.7 km/h 81% 0 mm 151 W/m2
14:39 7.5 °C 4.5 °C 1038.8 hPa NNW 5.6 km/h 9.7 km/h 81.2% 0 mm 144 W/m2
14:44 7.5 °C 4.6 °C 1038.8 hPa NNW 5.3 km/h 8 km/h 81.8% 0 mm 137 W/m2
14:49 7.6 °C 4.7 °C 1038.8 hPa NNW 1.4 km/h 8 km/h 82% 0 mm 130 W/m2
14:54 7.8 °C 4.8 °C 1038.8 hPa NNW 3.2 km/h 4.8 km/h 81.8% 0 mm 120 W/m2
14:59 7.9 °C 4.8 °C 1039.2 hPa NNW 2.3 km/h 4.8 km/h 81% 0 mm 113 W/m2
15:04 8.2 °C 5.1 °C 1039.2 hPa NNW 4.7 km/h 8 km/h 80.8% 0 mm 104 W/m2
15:09 8.1 °C 4.8 °C 1039.2 hPa NNW 5.3 km/h 8 km/h 80% 0 mm 95 W/m2
15:14 7.9 °C 4.7 °C 1039.2 hPa NNW 4 km/h 8 km/h 80.4% 0 mm 86 W/m2
15:19 8 °C 4.9 °C 1039.2 hPa NNW 3.5 km/h 6.4 km/h 81% 0 mm 77 W/m2
15:24 7.9 °C 4.8 °C 1039.2 hPa NNW 3.2 km/h 6.4 km/h 81% 0 mm 69 W/m2
15:29 7.8 °C 4.7 °C 1039.2 hPa NNW 3.1 km/h 6.4 km/h 80.8% 0 mm 62 W/m2
15:34 7.8 °C 4.7 °C 1039.2 hPa NNW 4 km/h 8 km/h 81% 0 mm 51 W/m2
15:39 7.7 °C 4.6 °C 1039.2 hPa NNW 3.7 km/h 8 km/h 81% 0 mm 42 W/m2
15:44 7.7 °C 4.6 °C 1039.5 hPa NNW 2.7 km/h 6.4 km/h 81% 0 mm 37 W/m2
15:49 7.7 °C 4.6 °C 1039.5 hPa NNW 1.8 km/h 4.8 km/h 81% 0 mm 28 W/m2
15:54 7.7 °C 4.7 °C 1039.5 hPa NNW 1.4 km/h 3.2 km/h 81.6% 0 mm 25 W/m2
15:59 7.6 °C 4.5 °C 1039.5 hPa NNW 1.1 km/h 3.2 km/h 81% 0 mm 21 W/m2
16:04 7.6 °C 4.6 °C 1039.2 hPa Calm   1.6 km/h 81.6% 0 mm 18 W/m2
16:09 7.6 °C 4.7 °C 1039.2 hPa Calm   3.2 km/h 82% 0 mm 16 W/m2
16:14 7.7 °C 4.8 °C 1039.2 hPa Calm     82% 0 mm 14 W/m2
16:19 7.8 °C 4.8 °C 1039.2 hPa Calm     82% 0 mm 12 W/m2
16:24 7.7 °C 4.7 °C 1039.2 hPa Calm     81.8% 0 mm 11 W/m2
16:29 7.2 °C 4.2 °C 1039.2 hPa NNW 0.8 km/h 3.2 km/h 81% 0 mm 7 W/m2
16:34 6.8 °C 3.9 °C 1039.5 hPa Calm   3.2 km/h 82% 0 mm 5 W/m2
16:39 6.8 °C 4 °C 1039.5 hPa Calm     82.6% 0 mm 5 W/m2
16:44 6.7 °C 3.9 °C 1039.5 hPa Calm     83% 0 mm 0 W/m2
16:49 6.6 °C 3.9 °C 1039.5 hPa Calm     83% 0 mm 0 W/m2
16:54 6.4 °C 3.7 °C 1039.8 hPa Calm     83% 0 mm 0 W/m2
16:59 6.1 °C 3.4 °C 1039.8 hPa Calm     83.2% 0 mm 0 W/m2
17:04 5.7 °C 3.1 °C 1039.8 hPa Calm     83.8% 0 mm 0 W/m2
17:09 5.3 °C 2.8 °C 1039.5 hPa NNW 0.6 km/h 3.2 km/h 84% 0 mm 0 W/m2
17:14 4.9 °C 2.6 °C 1039.8 hPa Calm   1.6 km/h 84.8% 0 mm 0 W/m2
17:19 4.7 °C 2.3 °C 1039.5 hPa Calm     85% 0 mm 0 W/m2
17:24 4.5 °C 2.4 °C 1039.5 hPa Calm     86% 0 mm 0 W/m2
17:29 4.3 °C 2.3 °C 1039.5 hPa Calm     86% 0 mm 0 W/m2
17:34 4.2 °C 2.1 °C 1039.5 hPa Calm     86% 0 mm 0 W/m2
17:39 4 °C 1.9 °C 1039.5 hPa Calm     86.4% 0 mm 0 W/m2
17:44 3.8 °C 1.8 °C 1039.5 hPa Calm     87% 0 mm 0 W/m2
17:49 3.6 °C 1.6 °C 1039.5 hPa Calm     87% 0 mm 0 W/m2
17:54 3.4 °C 1.4 °C 1039.8 hPa Calm     87% 0 mm 0 W/m2
17:59 3.4 °C 1.6 °C 1039.8 hPa Calm     88% 0 mm 0 W/m2
18:04 3.3 °C 1.6 °C 1039.8 hPa Calm     88% 0 mm 0 W/m2
18:09 3.2 °C 1.4 °C 1039.8 hPa Calm     88% 0 mm 0 W/m2
18:14 3.1 °C 1.3 °C 1039.8 hPa Calm     88% 0 mm 0 W/m2
18:19 2.9 °C 1.1 °C 1039.8 hPa Calm     88% 0 mm 0 W/m2
18:24 2.9 °C 1.2 °C 1039.5 hPa Calm     88.8% 0 mm 0 W/m2
18:29 2.9 °C 1.3 °C 1039.5 hPa Calm     89% 0 mm 0 W/m2
18:34 2.7 °C 1.1 °C 1039.5 hPa Calm     89% 0 mm 0 W/m2
18:39 2.5 °C 0.9 °C 1039.5 hPa Calm     89% 0 mm 0 W/m2
18:44 2.4 °C 0.8 °C 1039.5 hPa Calm     89% 0 mm 0 W/m2
18:49 2.3 °C 0.7 °C 1039.5 hPa Calm     89% 0 mm 0 W/m2
18:54 2.2 °C 0.7 °C 1039.8 hPa Calm     89.2% 0 mm 0 W/m2
18:59 2.2 °C 0.6 °C 1039.8 hPa Calm     89.2% 0 mm 0 W/m2
19:04 2.2 °C 0.7 °C 1039.5 hPa Calm     90% 0 mm 0 W/m2
19:09 2.2 °C 0.7 °C 1039.8 hPa Calm     90% 0 mm 0 W/m2
19:14 2.2 °C 0.7 °C 1039.8 hPa Calm     90% 0 mm 0 W/m2
19:19 2.2 °C 0.7 °C 1039.8 hPa Calm     90% 0 mm 0 W/m2
19:24 2 °C 0.5 °C 1039.8 hPa Calm     90% 0 mm 0 W/m2
19:29 1.8 °C 0.3 °C 1039.8 hPa Calm     90% 0 mm 0 W/m2
19:34 1.7 °C 0.2 °C 1039.8 hPa Calm     90% 0 mm 0 W/m2
19:39 1.7 °C 0.2 °C 1039.8 hPa Calm     90% 0 mm 0 W/m2
19:44 1.8 °C 0.6 °C 1039.8 hPa Calm     90.8% 0 mm 0 W/m2
19:49 2.3 °C 1 °C 1039.8 hPa Calm     91% 0 mm 0 W/m2
19:54 2.3 °C 1 °C 1039.8 hPa Calm     91% 0 mm 0 W/m2
19:59 2.3 °C 0.9 °C 1039.8 hPa Calm     91% 0 mm 0 W/m2
20:04 2.4 °C 1.1 °C 1039.8 hPa Calm   1.6 km/h 91% 0 mm 0 W/m2
20:09 2.3 °C 1.1 °C 1040.2 hPa Calm     91% 0 mm 0 W/m2
20:14 2 °C 0.7 °C 1040.2 hPa Calm     90.8% 0 mm 0 W/m2
20:19 1.6 °C 0.2 °C 1040.2 hPa Calm     90.4% 0 mm 0 W/m2
20:24 1.2 °C -0.3 °C 1040.2 hPa Calm     90.2% 0 mm 0 W/m2
20:29 1.1 °C -0.2 °C 1040.2 hPa Calm     91% 0 mm 0 W/m2
20:34 1 °C -0.3 °C 1040.2 hPa Calm     91% 0 mm 0 W/m2
20:39 1 °C -0.3 °C 1040.2 hPa Calm     91% 0 mm 0 W/m2
20:44 0.9 °C -0.4 °C 1040.2 hPa Calm     91% 0 mm 0 W/m2
20:49 0.9 °C -0.4 °C 1040.2 hPa Calm     91% 0 mm 0 W/m2
20:54 0.8 °C -0.5 °C 1040.2 hPa Calm     91% 0 mm 0 W/m2
20:59 0.8 °C -0.5 °C 1040.2 hPa Calm     91% 0 mm 0 W/m2
21:04 0.8 °C -0.5 °C 1040.2 hPa Calm     91% 0 mm 0 W/m2
21:09 0.7 °C -0.6 °C 1040.2 hPa Calm     91% 0 mm 0 W/m2
21:14 0.7 °C -0.6 °C 1040.2 hPa Calm     91% 0 mm 0 W/m2
21:19 0.6 °C -0.7 °C 1040.2 hPa Calm     91% 0 mm 0 W/m2
21:24 0.6 °C -0.7 °C 1040.2 hPa Calm     91% 0 mm 0 W/m2
21:29 0.4 °C -0.8 °C 1040.2 hPa Calm     91% 0 mm 0 W/m2
21:34 0.4 °C -0.9 °C 1040.2 hPa Calm     91% 0 mm 0 W/m2
21:39 0.4 °C -0.9 °C 1039.8 hPa Calm     91% 0 mm 0 W/m2
21:44 0.3 °C -0.9 °C 1039.8 hPa Calm     91% 0 mm 0 W/m2
21:49 0.2 °C -1.1 °C 1039.8 hPa Calm     91% 0 mm 0 W/m2
21:54 0.2 °C -1.1 °C 1039.8 hPa Calm     91.2% 0 mm 0 W/m2
21:58 0 °C -1.3 °C 1039.8 hPa Calm     91% 0 mm 0 W/m2
22:04 0 °C -1.2 °C 1039.8 hPa Calm     91.2% 0 mm 0 W/m2
22:09 0.1 °C -1.1 °C 1039.8 hPa Calm     91.8% 0 mm 0 W/m2
22:14 0 °C -1.1 °C 1039.8 hPa Calm   1.6 km/h 92% 0 mm 0 W/m2
22:19 0 °C -1.1 °C 1039.8 hPa Calm   1.6 km/h 92% 0 mm 0 W/m2
22:24 -0.1 °C -1.2 °C 1039.8 hPa Calm     92% 0 mm 0 W/m2
22:29 -0.1 °C -1.2 °C 1039.8 hPa Calm     92% 0 mm 0 W/m2
22:34 -0.1 °C -1.2 °C 1039.8 hPa Calm   1.6 km/h 92% 0 mm 0 W/m2
22:39 -0.2 °C -1.2 °C 1039.8 hPa Calm     92% 0 mm 0 W/m2
22:43 -0.2 °C -1.3 °C 1039.8 hPa Calm     92% 0 mm 0 W/m2
22:49 -0.3 °C -1.4 °C 1039.8 hPa Calm     92% 0 mm 0 W/m2
22:54 -0.4 °C -1.5 °C 1039.8 hPa Calm     92% 0 mm 0 W/m2
22:59 -0.4 °C -1.5 °C 1039.5 hPa Calm     92% 0 mm 0 W/m2
23:04 -0.4 °C -1.5 °C 1039.8 hPa Calm     92% 0 mm 0 W/m2
23:09 -0.4 °C -1.5 °C 1039.8 hPa Calm     92% 0 mm 0 W/m2
23:14 -0.5 °C -1.6 °C 1039.8 hPa Calm     92% 0 mm 0 W/m2
23:19 -0.6 °C -1.7 °C 1039.5 hPa Calm     92% 0 mm 0 W/m2
23:24 -0.6 °C -1.7 °C 1039.5 hPa Calm     92% 0 mm 0 W/m2
23:29 -0.7 °C -1.8 °C 1039.8 hPa Calm     92% 0 mm 0 W/m2
23:34 -0.6 °C -1.7 °C 1039.5 hPa Calm   1.6 km/h 92% 0 mm 0 W/m2
23:39 -0.6 °C -1.7 °C 1039.5 hPa Calm     92% 0 mm 0 W/m2
23:44 -0.7 °C -1.8 °C 1039.5 hPa Calm     92% 0 mm 0 W/m2
23:49 -0.7 °C -1.8 °C 1039.5 hPa Calm   1.6 km/h 92% 0 mm 0 W/m2
23:54 -0.7 °C -1.8 °C 1039.5 hPa Calm   1.6 km/h 92% 0 mm 0 W/m2
23:59 -0.8 °C -1.8 °C 1039.5 hPa Calm     92% 0 mm 0 W/m2
Bath Spa Weather
Compliments of Weather Underground - 2 mb